<?xml version="1.0" encoding="UTF-8" standalone="no" ?>
<gpx xmlns="http://www.topografix.com/GPX/1/1" xmlns:xsi="http://www.w3.org/2001/XMLSchema-instance" xsi:schemaLocation="http://www.topografix.com/GPX/1/1 http://www.topografix.com/GPX/1/1/gpx.xsd" version="1.1" creator="VisuGPX - https://www.visugpx.com">
  <metadata>
    <name>222011</name>
    <desc><![CDATA[Balade vendéenne 2]]></desc>
  </metadata>
  <trk>
    <name><![CDATA[ACTIVE LOG094349]]></name>
    <trkseg>
      <trkpt lat="46.82337" lon="-2.13159">
        <ele>7.486</ele>
        <time>2011-08-05T07:43:47Z</time>
      </trkpt>
      <trkpt lat="46.82428" lon="-2.13182">
        <ele>7.959</ele>
        <time>2011-08-05T07:44:08Z</time>
      </trkpt>
      <trkpt lat="46.8254" lon="-2.13185">
        <ele>7.098</ele>
        <time>2011-08-05T07:44:29Z</time>
      </trkpt>
      <trkpt lat="46.8273" lon="-2.13186">
        <ele>6.746</ele>
        <time>2011-08-05T07:45:04Z</time>
      </trkpt>
      <trkpt lat="46.8277" lon="-2.13186">
        <ele>7.244</ele>
        <time>2011-08-05T07:45:11Z</time>
      </trkpt>
      <trkpt lat="46.82925" lon="-2.13185">
        <ele>7.395</ele>
        <time>2011-08-05T07:45:40Z</time>
      </trkpt>
      <trkpt lat="46.82967" lon="-2.13183">
        <ele>7.469</ele>
        <time>2011-08-05T07:45:48Z</time>
      </trkpt>
      <trkpt lat="46.82977" lon="-2.13183">
        <ele>7.949</ele>
        <time>2011-08-05T07:45:50Z</time>
      </trkpt>
      <trkpt lat="46.82994" lon="-2.13179">
        <ele>8.217</ele>
        <time>2011-08-05T07:45:54Z</time>
      </trkpt>
      <trkpt lat="46.82995" lon="-2.13178">
        <ele>8.219</ele>
        <time>2011-08-05T07:45:56Z</time>
      </trkpt>
      <trkpt lat="46.82995" lon="-2.13178">
        <ele>7.926</ele>
        <time>2011-08-05T07:46:00Z</time>
      </trkpt>
      <trkpt lat="46.83048" lon="-2.13086">
        <ele>7.477</ele>
        <time>2011-08-05T07:46:12Z</time>
      </trkpt>
      <trkpt lat="46.83055" lon="-2.1307">
        <ele>7.118</ele>
        <time>2011-08-05T07:46:17Z</time>
      </trkpt>
      <trkpt lat="46.83071" lon="-2.13044">
        <ele>6.794</ele>
        <time>2011-08-05T07:46:21Z</time>
      </trkpt>
      <trkpt lat="46.83073" lon="-2.13045">
        <ele>6.715</ele>
        <time>2011-08-05T07:46:23Z</time>
      </trkpt>
      <trkpt lat="46.83174" lon="-2.12989">
        <ele>4.536</ele>
        <time>2011-08-05T07:46:38Z</time>
      </trkpt>
      <trkpt lat="46.83184" lon="-2.12985">
        <ele>5.063</ele>
        <time>2011-08-05T07:46:42Z</time>
      </trkpt>
      <trkpt lat="46.8321" lon="-2.12976">
        <ele>4.245</ele>
        <time>2011-08-05T07:46:47Z</time>
      </trkpt>
      <trkpt lat="46.83235" lon="-2.12959">
        <ele>4.08</ele>
        <time>2011-08-05T07:46:51Z</time>
      </trkpt>
      <trkpt lat="46.83302" lon="-2.1292">
        <ele>3.28</ele>
        <time>2011-08-05T07:47:03Z</time>
      </trkpt>
      <trkpt lat="46.83443" lon="-2.12837">
        <ele>3.404</ele>
        <time>2011-08-05T07:47:27Z</time>
      </trkpt>
    </trkseg>
  </trk>
</gpx>